Time;durP1;ratioP1;P1;durP2;ratioP2;P2;SDS_P1;SDS_P2;PMS_P1;PMS_P2;Temp;Humidity;BMP_temperature;BMP_pressure;BME280_temperature;BME280_humidity;BME280_pressure;Samples;Min_cycle;Max_cycle;Signal;HPM_P1;HPM_P2
2023/01/02 00:01:17;;;;;;;13.07;10.82;;;9.80;99.90;;;;;;5002600;28;20036;-61
2023/01/02 00:03:42;;;;;;;13.23;10.40;;;9.80;99.90;;;;;;5010687;28;20545;-59
2023/01/02 00:06:08;;;;;;;14.05;11.52;;;9.80;99.90;;;;;;5010166;28;20120;-58
2023/01/02 00:08:34;;;;;;;16.85;11.50;;;9.80;99.90;;;;;;5015122;28;20421;-59
2023/01/02 00:10:59;;;;;;;12.43;11.13;;;9.80;99.90;;;;;;5015743;28;20033;-59
2023/01/02 00:13:25;;;;;;;14.68;10.48;;;9.80;99.90;;;;;;5012286;28;20077;-59
2023/01/02 00:15:51;;;;;;;13.02;11.50;;;9.80;99.90;;;;;;5015276;28;20141;-60
2023/01/02 00:18:16;;;;;;;14.30;11.00;;;9.80;99.90;;;;;;5012942;28;20032;-59
2023/01/02 00:20:42;;;;;;;12.43;10.43;;;9.80;99.90;;;;;;5009432;28;20034;-58
2023/01/02 00:23:08;;;;;;;15.23;10.40;;;9.80;99.90;;;;;;5006380;28;20034;-60
2023/01/02 00:25:34;;;;;;;12.18;10.35;;;9.80;99.90;;;;;;5006331;28;20037;-59
2023/01/02 00:28:00;;;;;;;12.00;10.27;;;9.80;99.90;;;;;;5014817;28;20537;-60
2023/01/02 00:30:25;;;;;;;14.93;10.20;;;9.80;99.90;;;;;;5015532;28;20504;-59
2023/01/02 00:32:51;;;;;;;16.52;10.52;;;9.80;99.90;;;;;;5013740;28;20034;-60
2023/01/02 00:35:17;;;;;;;12.52;9.55;;;9.80;99.90;;;;;;5009764;28;20038;-60
2023/01/02 00:37:43;;;;;;;11.98;10.07;;;9.80;99.90;;;;;;5012552;28;20057;-59
2023/01/02 00:40:12;;;;;;;16.90;10.48;;;9.90;99.90;;;;;;5011442;28;20079;-59
2023/01/02 00:42:41;;;;;;;11.52;10.35;;;9.90;99.90;;;;;;5007548;28;20033;-59
2023/01/02 00:45:09;;;;;;;14.90;10.73;;;9.90;99.90;;;;;;5003648;28;20238;-59
2023/01/02 00:47:34;;;;;;;16.90;10.05;;;9.90;99.90;;;;;;5008450;28;20523;-60
2023/01/02 00:50:00;;;;;;;11.38;9.50;;;9.90;99.90;;;;;;4996337;28;20033;-59
2023/01/02 00:52:26;;;;;;;12.95;10.00;;;9.90;99.90;;;;;;5013096;28;20060;-60
2023/01/02 00:54:51;;;;;;;17.30;10.10;;;9.90;99.90;;;;;;5012517;28;20033;-58
2023/01/02 00:57:17;;;;;;;11.93;9.90;;;9.90;99.90;;;;;;5009830;28;20048;-59
2023/01/02 00:59:43;;;;;;;11.90;10.07;;;9.90;99.90;;;;;;5011003;28;20517;-60
2023/01/02 01:02:08;;;;;;;11.73;10.52;;;9.90;99.90;;;;;;5016943;28;20030;-59
2023/01/02 01:04:35;;;;;;;11.07;9.85;;;9.90;99.90;;;;;;5013931;28;20407;-62
2023/01/02 01:07:01;;;;;;;13.65;9.55;;;9.80;99.90;;;;;;5014355;28;20040;-60
2023/01/02 01:09:26;;;;;;;10.18;8.85;;;9.80;99.90;;;;;;5010342;28;20033;-60
2023/01/02 01:11:52;;;;;;;16.70;10.80;;;9.80;99.90;;;;;;5006317;28;20502;-60
2023/01/02 01:14:18;;;;;;;10.73;9.73;;;9.80;99.90;;;;;;5003794;28;20034;-60
2023/01/02 01:16:43;;;;;;;11.18;9.25;;;9.80;99.90;;;;;;5013541;28;20033;-61
2023/01/02 01:19:09;;;;;;;11.60;9.07;;;9.80;99.90;;;;;;5016462;28;20053;-59
2023/01/02 01:21:35;;;;;;;10.77;9.20;;;9.80;99.90;;;;;;5011580;28;20517;-60
2023/01/02 01:24:00;;;;;;;11.05;9.30;;;9.80;99.90;;;;;;5013707;28;20065;-58
2023/01/02 01:26:26;;;;;;;11.10;9.00;;;9.80;99.90;;;;;;5008956;28;20037;-59
2023/01/02 01:28:53;;;;;;;13.25;9.02;;;9.80;99.90;;;;;;5012708;28;20133;-59
2023/01/02 01:31:19;;;;;;;11.15;8.98;;;9.80;99.90;;;;;;5013486;28;20441;-58
2023/01/02 01:33:45;;;;;;;11.25;8.95;;;9.80;99.90;;;;;;5018721;28;20515;-59
2023/01/02 01:36:17;;;;;;;9.57;8.57;;;9.80;99.90;;;;;;5010650;28;20047;-59
2023/01/02 01:38:44;;;;;;;9.95;8.75;;;9.80;99.90;;;;;;5004553;28;20058;-59
2023/01/02 01:41:15;;;;;;;11.27;9.80;;;9.80;99.90;;;;;;5008395;28;20045;-60
2023/01/02 01:43:44;;;;;;;13.40;8.55;;;9.80;99.90;;;;;;5010168;28;20113;-59
2023/01/02 01:46:15;;;;;;;12.05;8.98;;;9.80;99.90;;;;;;5014000;28;20546;-60
2023/01/02 01:48:41;;;;;;;;;;;9.80;99.90;;;;;;5009339;28;20018;-59
2023/01/02 01:51:07;;;;;;;9.65;8.20;;;9.80;99.90;;;;;;5016650;28;19917;-60
2023/01/02 01:53:33;;;;;;;13.82;8.52;;;9.80;99.90;;;;;;5014899;28;20402;-60
2023/01/02 01:56:03;;;;;;;11.15;8.65;;;9.80;99.90;;;;;;4991032;28;20577;-59
2023/01/02 01:58:33;;;;;;;9.30;7.90;;;9.80;99.90;;;;;;5005402;28;20038;-59
2023/01/02 02:01:00;;;;;;;8.40;7.50;;;9.80;99.90;;;;;;5008937;28;20030;-60
2023/01/02 02:03:28;;;;;;;8.75;7.85;;;9.80;99.90;;;;;;5010159;28;20044;-60
2023/01/02 02:05:57;;;;;;;9.52;7.18;;;9.70;99.90;;;;;;5010952;28;20033;-58
2023/01/02 02:08:48;;;;;;;7.95;7.15;;;9.70;99.90;;;;;;5015452;28;20037;-59
2023/01/02 02:11:14;;;;;;;10.50;8.25;;;9.80;99.90;;;;;;5016478;28;20516;-59
2023/01/02 02:13:40;;;;;;;7.95;7.15;;;9.70;99.90;;;;;;5014890;28;20037;-58
2023/01/02 02:16:22;;;;;;;8.90;7.25;;;9.80;99.90;;;;;;5015739;28;20497;-59
2023/01/02 02:18:59;;;;;;;8.77;7.20;;;9.80;99.90;;;;;;5010895;28;20042;-61
2023/01/02 02:21:43;;;;;;;9.75;7.43;;;9.90;99.90;;;;;;5011202;28;20041;-59
2023/01/02 02:24:29;;;;;;;7.75;6.90;;;9.90;99.90;;;;;;5010459;28;20034;-61
2023/01/02 02:27:01;;;;;;;7.65;6.68;;;9.90;99.90;;;;;;5013543;28;20394;-59
2023/01/02 02:30:01;;;;;;;10.10;7.60;;;9.90;99.90;;;;;;5011475;28;20038;-60
2023/01/02 02:32:36;;;;;;;10.27;7.78;;;9.90;99.90;;;;;;5011712;28;20687;-60
2023/01/02 02:35:12;;;;;;;9.52;7.03;;;9.80;99.90;;;;;;5009118;28;20038;-59
2023/01/02 02:38:04;;;;;;;8.05;6.97;;;9.70;99.90;;;;;;5009357;28;20037;-59
2023/01/02 02:40:41;;;;;;;10.82;7.30;;;9.70;99.90;;;;;;5003857;28;20537;-59
2023/01/02 02:43:20;;;;;;;10.25;7.20;;;9.60;99.90;;;;;;5004585;28;20025;-61
2023/01/02 02:46:02;;;;;;;8.73;7.05;;;9.60;99.90;;;;;;5018091;28;20030;-60
2023/01/02 02:49:13;;;;;;;9.50;7.38;;;9.60;99.90;;;;;;5020560;28;20033;-59
2023/01/02 02:51:46;;;;;;;9.85;7.15;;;9.60;99.90;;;;;;4981291;28;20033;-59
2023/01/02 02:54:22;;;;;;;6.90;6.13;;;9.60;99.90;;;;;;5011712;28;20042;-58
2023/01/02 02:56:49;;;;;;;11.13;8.05;;;9.50;99.90;;;;;;5016296;28;20046;-59
2023/01/02 02:59:16;;;;;;;10.40;7.20;;;9.50;99.90;;;;;;5016240;28;20116;-59
2023/01/02 03:01:42;;;;;;;11.98;8.27;;;9.50;99.90;;;;;;5016541;28;20029;-59
2023/01/02 03:04:16;;;;;;;9.15;8.15;;;9.50;99.90;;;;;;5015800;28;20036;-60
2023/01/02 03:07:08;;;;;;;11.52;7.53;;;9.50;99.90;;;;;;5011393;28;20030;-60
2023/01/02 03:09:48;;;;;;;10.70;8.43;;;9.40;99.90;;;;;;5004442;28;20049;-59
2023/01/02 03:12:22;;;;;;;9.13;7.53;;;9.30;99.90;;;;;;5008973;28;20375;-59
2023/01/02 03:15:31;;;;;;;9.10;7.72;;;9.30;99.90;;;;;;5010767;28;20037;-59
2023/01/02 03:18:27;;;;;;;12.65;8.52;;;9.30;99.90;;;;;;5012731;28;20033;-60
2023/01/02 03:21:09;;;;;;;9.57;7.65;;;9.30;99.90;;;;;;5014516;28;20077;-59
2023/01/02 03:23:42;;;;;;;;;;;9.30;99.90;;;;;;5009916;28;20058;-59
2023/01/02 03:26:09;;;;;;;13.48;7.35;;;9.40;99.90;;;;;;5004698;28;19921;-59
2023/01/02 03:28:38;;;;;;;13.18;8.98;;;9.40;99.90;;;;;;5005861;28;20033;-59
2023/01/02 03:31:06;;;;;;;9.30;7.85;;;9.40;99.90;;;;;;5012938;28;20022;-59
2023/01/02 03:33:38;;;;;;;10.57;7.47;;;9.40;99.90;;;;;;5009409;28;20041;-59
2023/01/02 03:36:13;;;;;;;9.05;7.35;;;9.50;99.90;;;;;;5006175;28;20030;-59
2023/01/02 03:38:47;;;;;;;10.27;7.32;;;9.40;99.90;;;;;;5002588;28;20040;-59
2023/01/02 03:41:26;;;;;;;8.75;7.85;;;9.40;99.90;;;;;;5008556;28;20520;-59
2023/01/02 03:43:54;;;;;;;10.50;7.68;;;9.40;99.90;;;;;;5013903;28;20442;-59
2023/01/02 03:46:32;;;;;;;10.18;9.05;;;9.30;99.90;;;;;;5014753;28;20397;-60
2023/01/02 03:49:05;;;;;;;13.63;8.20;;;9.20;99.90;;;;;;5012982;28;20022;-60
2023/01/02 03:51:32;;;;;;;13.82;8.43;;;9.20;99.90;;;;;;5013559;28;20366;-60
2023/01/02 03:54:00;;;;;;;7.95;7.15;;;9.10;99.90;;;;;;5009769;28;20030;-60
2023/01/02 03:56:46;;;;;;;8.38;7.57;;;9.10;99.90;;;;;;5014942;28;20033;-60
2023/01/02 03:59:44;;;;;;;8.40;7.40;;;9.00;99.90;;;;;;5014194;28;20064;-59
2023/01/02 04:02:25;;;;;;;9.30;8.18;;;9.10;99.90;;;;;;5007329;28;20026;-60
2023/01/02 04:04:57;;;;;;;8.45;7.05;;;9.00;99.90;;;;;;5010285;28;20037;-59
2023/01/02 04:07:27;;;;;;;14.57;7.60;;;9.00;99.90;;;;;;5026287;28;20029;-58
2023/01/02 04:09:54;;;;;;;11.50;7.95;;;9.00;99.90;;;;;;5019411;28;20358;-60
2023/01/02 04:12:23;;;;;;;10.07;8.13;;;9.00;99.90;;;;;;5017972;28;20029;-58
2023/01/02 04:15:01;;;;;;;11.77;8.38;;;9.00;99.90;;;;;;5014499;28;20101;-60
2023/01/02 04:17:30;;;;;;;10.00;8.48;;;8.90;99.90;;;;;;5010156;28;20036;-59
2023/01/02 04:20:03;;;;;;;9.55;8.40;;;8.90;99.90;;;;;;5009652;28;20022;-60
2023/01/02 04:22:33;;;;;;;9.57;7.68;;;8.90;99.90;;;;;;5007357;28;20746;-60
2023/01/02 04:25:19;;;;;;;8.70;7.80;;;8.80;99.90;;;;;;5011544;28;20148;-58
2023/01/02 04:27:57;;;;;;;9.93;8.18;;;8.90;99.90;;;;;;5014043;28;20505;-59
2023/01/02 04:30:25;;;;;;;8.27;7.15;;;8.90;99.90;;;;;;5011829;28;20118;-60
2023/01/02 04:32:52;;;;;;;7.88;6.93;;;8.90;99.90;;;;;;5005592;28;20096;-58
2023/01/02 04:35:21;;;;;;;8.55;7.65;;;8.90;99.90;;;;;;5013209;28;20036;-59
2023/01/02 04:37:47;;;;;;;9.98;7.28;;;8.90;99.90;;;;;;5011618;28;20506;-59
2023/01/02 04:40:30;;;;;;;9.48;7.88;;;8.90;99.90;;;;;;5007882;28;20076;-59
2023/01/02 04:42:56;;;;;;;12.35;8.10;;;8.90;99.90;;;;;;5011417;28;20025;-60
2023/01/02 04:45:22;;;;;;;8.75;7.30;;;8.90;99.90;;;;;;5009602;28;20034;-59
2023/01/02 04:47:48;;;;;;;7.75;6.90;;;8.80;99.90;;;;;;5008348;28;20038;-59
2023/01/02 04:50:15;;;;;;;11.65;7.93;;;8.80;99.90;;;;;;5006115;28;20087;-60
2023/01/02 04:52:40;;;;;;;10.50;7.95;;;8.80;99.90;;;;;;5007191;28;20080;-59
2023/01/02 04:55:08;;;;;;;9.00;7.60;;;8.70;99.90;;;;;;5009443;28;20041;-59
2023/01/02 04:57:37;;;;;;;10.88;7.75;;;8.70;99.90;;;;;;5010491;28;20035;-59
2023/01/02 05:00:05;;;;;;;14.55;8.32;;;8.60;99.90;;;;;;5006843;28;20092;-59
2023/01/02 05:02:35;;;;;;;9.70;7.78;;;8.60;99.90;;;;;;5015245;28;20021;-59
2023/01/02 05:05:00;;;;;;;11.68;8.05;;;8.60;99.90;;;;;;5019774;28;20049;-58
2023/01/02 05:07:26;;;;;;;9.23;8.10;;;8.60;99.90;;;;;;5007539;28;20034;-60
2023/01/02 05:09:51;;;;;;;14.30;8.23;;;8.60;99.90;;;;;;5013685;28;20432;-60
2023/01/02 05:12:17;;;;;;;10.85;8.38;;;8.60;99.90;;;;;;5010443;28;20048;-59
2023/01/02 05:14:43;;;;;;;9.73;8.73;;;8.60;99.90;;;;;;5009395;28;20050;-59
2023/01/02 05:17:08;;;;;;;10.43;8.10;;;8.60;99.90;;;;;;5010527;28;20041;-59
2023/01/02 05:19:34;;;;;;;9.40;7.38;;;8.60;99.90;;;;;;5004269;28;20028;-59
2023/01/02 05:24:44;;;;;;;11.82;9.00;;;8.60;99.90;;;;;;5008945;28;20080;-59
2023/01/02 05:27:09;;;;;;;10.13;7.78;;;8.60;99.90;;;;;;4995312;28;20389;-59
2023/01/02 05:29:35;;;;;;;10.95;8.73;;;8.60;99.90;;;;;;5014278;28;20034;-60
2023/01/02 05:32:00;;;;;;;10.55;8.00;;;8.60;99.90;;;;;;5019207;28;20029;-59
2023/01/02 05:34:26;;;;;;;9.23;7.68;;;8.60;99.90;;;;;;5012126;28;20405;-58
2023/01/02 05:36:52;;;;;;;8.43;7.40;;;8.60;99.90;;;;;;5008491;28;20061;-59
2023/01/02 05:39:17;;;;;;;11.07;8.50;;;8.60;99.90;;;;;;5013083;28;20054;-59
2023/01/02 05:41:43;;;;;;;11.30;8.15;;;8.60;99.90;;;;;;5009279;28;20052;-59
2023/01/02 05:44:09;;;;;;;10.95;8.02;;;8.60;99.90;;;;;;5009871;28;20030;-60
2023/01/02 05:46:37;;;;;;;8.57;7.68;;;8.60;99.90;;;;;;5007651;28;20057;-60
2023/01/02 05:49:09;;;;;;;11.18;8.00;;;8.60;99.90;;;;;;5010282;28;20025;-60
2023/01/02 05:51:36;;;;;;;9.93;8.10;;;8.60;99.90;;;;;;5012596;28;20092;-59
2023/01/02 05:54:01;;;;;;;9.50;6.93;;;8.60;99.90;;;;;;5015116;28;20445;-58
2023/01/02 05:56:28;;;;;;;11.98;7.78;;;8.60;99.90;;;;;;5017303;28;20120;-59
2023/01/02 05:58:54;;;;;;;9.88;8.45;;;8.60;99.90;;;;;;5008954;28;20402;-60
2023/01/02 06:01:29;;;;;;;8.77;7.50;;;8.60;99.90;;;;;;5004761;28;20030;-59
2023/01/02 06:03:56;;;;;;;10.88;7.07;;;8.50;99.90;;;;;;5007960;28;20022;-59
2023/01/02 06:06:26;;;;;;;9.90;7.45;;;8.50;99.90;;;;;;5009161;28;20038;-60
2023/01/02 06:08:51;;;;;;;9.45;7.57;;;8.40;99.90;;;;;;5011744;28;20018;-59
2023/01/02 06:11:17;;;;;;;11.10;8.20;;;8.40;99.90;;;;;;5011912;28;20067;-59
2023/01/02 06:13:43;;;;;;;8.60;7.68;;;8.50;99.90;;;;;;5010574;28;20490;-59
2023/01/02 06:16:09;;;;;;;10.27;7.38;;;8.50;99.90;;;;;;5004730;28;20025;-58
2023/01/02 06:18:36;;;;;;;9.23;7.57;;;8.50;99.90;;;;;;5005410;28;20056;-60
2023/01/02 06:21:05;;;;;;;9.32;7.78;;;8.50;99.90;;;;;;5003662;28;20019;-59
2023/01/02 06:23:31;;;;;;;9.93;7.60;;;8.50;99.90;;;;;;5009483;28;20740;-60
2023/01/02 06:26:09;;;;;;;8.85;7.95;;;8.40;99.90;;;;;;5009374;28;20033;-60
2023/01/02 06:28:35;;;;;;;9.05;8.15;;;8.40;99.90;;;;;;5005138;28;20033;-59
2023/01/02 06:31:10;;;;;;;10.57;7.90;;;8.40;99.90;;;;;;5003828;28;20380;-59
2023/01/02 06:33:36;;;;;;;9.98;7.90;;;8.40;99.90;;;;;;5003393;28;20490;-60
2023/01/02 06:36:05;;;;;;;9.27;7.85;;;8.40;99.90;;;;;;5007650;28;20030;-60
2023/01/02 06:38:30;;;;;;;8.90;8.00;;;8.40;99.90;;;;;;5008126;28;20041;-59
2023/01/02 06:40:58;;;;;;;9.07;8.15;;;8.40;99.90;;;;;;5014217;28;20025;-61
2023/01/02 06:43:24;;;;;;;9.13;7.43;;;8.40;99.90;;;;;;5011892;28;20861;-60
2023/01/02 06:45:51;;;;;;;9.98;7.53;;;8.30;99.90;;;;;;5011255;28;20368;-59
2023/01/02 06:48:17;;;;;;;10.23;8.50;;;8.30;99.90;;;;;;5006407;28;20113;-60
2023/01/02 06:50:45;;;;;;;11.07;8.55;;;8.30;99.90;;;;;;5011566;28;20030;-60
2023/01/02 06:53:12;;;;;;;10.07;8.10;;;8.30;99.90;;;;;;5013824;28;20105;-61
2023/01/02 06:55:38;;;;;;;9.43;7.97;;;8.30;99.90;;;;;;5015299;28;20026;-60
2023/01/02 06:58:04;;;;;;;9.85;7.95;;;8.30;99.90;;;;;;5015564;28;20079;-59
2023/01/02 07:00:30;;;;;;;9.35;7.75;;;8.30;99.90;;;;;;5013868;28;20026;-61
2023/01/02 07:02:55;;;;;;;12.55;8.30;;;8.30;99.90;;;;;;5011847;28;20040;-59
2023/01/02 07:05:21;;;;;;;8.88;7.03;;;8.30;99.90;;;;;;5012142;28;20359;-59
2023/01/02 07:07:47;;;;;;;9.73;7.72;;;8.20;99.90;;;;;;5015774;28;20041;-59
2023/01/02 07:10:12;;;;;;;9.75;7.40;;;8.20;99.90;;;;;;5011837;28;20080;-59
2023/01/02 07:12:38;;;;;;;9.02;7.40;;;8.20;99.90;;;;;;5012497;28;20049;-60
2023/01/02 07:15:05;;;;;;;9.68;7.93;;;8.20;99.90;;;;;;5012619;28;20029;-61
2023/01/02 07:17:31;;;;;;;10.52;8.38;;;8.10;99.90;;;;;;5014710;28;20069;-59
2023/01/02 07:19:57;;;;;;;11.73;8.43;;;8.10;99.90;;;;;;5018902;28;20587;-59
2023/01/02 07:22:23;;;;;;;9.95;8.77;;;8.00;99.90;;;;;;5016539;28;20033;-58
2023/01/02 07:24:49;;;;;;;11.63;8.68;;;8.00;99.90;;;;;;5013336;28;20041;-60
2023/01/02 07:27:14;;;;;;;12.00;8.93;;;7.90;99.90;;;;;;5009315;28;20046;-60
2023/01/02 07:29:40;;;;;;;11.38;9.48;;;7.90;99.90;;;;;;5014007;28;20037;-59
2023/01/02 07:32:05;;;;;;;10.82;9.10;;;7.90;99.90;;;;;;5009072;28;20053;-59
2023/01/02 07:34:31;;;;;;;9.90;8.63;;;7.80;99.90;;;;;;5013596;28;20498;-59
2023/01/02 07:36:57;;;;;;;9.93;8.88;;;7.80;99.90;;;;;;5010616;28;20049;-59
2023/01/02 07:39:22;;;;;;;11.40;8.60;;;7.90;99.90;;;;;;5013531;28;20030;-60
2023/01/02 07:41:48;;;;;;;9.63;8.60;;;7.90;99.90;;;;;;5014411;28;20454;-60
2023/01/02 07:44:14;;;;;;;10.52;9.23;;;7.90;99.90;;;;;;5011716;28;20461;-60
2023/01/02 07:46:39;;;;;;;9.43;8.43;;;7.90;99.90;;;;;;5008868;28;20059;-58
2023/01/02 07:49:05;;;;;;;11.88;8.23;;;8.00;99.90;;;;;;5010699;28;20505;-60
2023/01/02 07:51:32;;;;;;;8.93;7.85;;;8.10;99.90;;;;;;5012095;28;20033;-58
2023/01/02 07:53:57;;;;;;;10.00;7.72;;;8.10;99.90;;;;;;5012680;28;20039;-59
2023/01/02 07:56:24;;;;;;;9.77;8.80;;;8.20;99.90;;;;;;5015054;28;20030;-59
2023/01/02 07:58:50;;;;;;;8.93;7.70;;;8.20;99.90;;;;;;5010859;28;20076;-59
2023/01/02 08:01:15;;;;;;;9.40;7.50;;;8.30;99.90;;;;;;5004199;28;20038;-59
2023/01/02 08:03:41;;;;;;;7.88;7.13;;;8.30;99.90;;;;;;5009258;28;20025;-59
2023/01/02 08:06:09;;;;;;;12.48;8.73;;;8.40;99.90;;;;;;5012903;28;20045;-60
2023/01/02 08:08:36;;;;;;;9.68;8.63;;;8.40;99.90;;;;;;5008817;28;20546;-58
2023/01/02 08:11:06;;;;;;;9.90;8.63;;;8.40;99.90;;;;;;5004238;28;20033;-58
2023/01/02 08:13:32;;;;;;;9.73;7.97;;;8.30;99.90;;;;;;5016013;28;20026;-58
2023/01/02 08:16:01;;;;;;;8.48;7.60;;;8.30;99.90;;;;;;5013909;28;20132;-59
2023/01/02 08:18:27;;;;;;;10.27;8.65;;;8.40;99.90;;;;;;5013338;28;20041;-60
2023/01/02 08:20:54;;;;;;;10.18;8.30;;;8.40;99.90;;;;;;5014955;28;20405;-59
2023/01/02 08:23:20;;;;;;;9.85;8.23;;;8.40;99.90;;;;;;5017661;28;20907;-59
2023/01/02 08:25:45;;;;;;;9.65;8.10;;;8.40;99.90;;;;;;5014984;28;20045;-59
2023/01/02 08:28:11;;;;;;;9.63;7.60;;;8.40;99.90;;;;;;5011221;28;20025;-59
2023/01/02 08:30:39;;;;;;;9.73;7.78;;;8.40;99.90;;;;;;5015248;28;20065;-59
2023/01/02 08:33:04;;;;;;;9.85;8.35;;;8.40;99.90;;;;;;5006789;28;20078;-59
2023/01/02 08:35:30;;;;;;;8.43;7.50;;;8.40;99.90;;;;;;5008830;28;20773;-59
2023/01/02 08:37:56;;;;;;;8.98;8.02;;;8.40;99.90;;;;;;5015555;28;20026;-58
2023/01/02 08:40:21;;;;;;;9.63;8.27;;;8.40;99.90;;;;;;5011661;28;20370;-60
2023/01/02 08:42:47;;;;;;;9.50;7.88;;;8.40;99.90;;;;;;4997627;28;20105;-60
2023/01/02 08:45:13;;;;;;;9.73;7.80;;;8.50;99.90;;;;;;5015680;28;20037;-59
2023/01/02 08:47:38;;;;;;;12.50;9.27;;;8.50;99.90;;;;;;5014545;28;20042;-59
2023/01/02 08:50:04;;;;;;;9.73;7.72;;;8.50;99.90;;;;;;5017275;28;20063;-59
2023/01/02 08:52:30;;;;;;;9.95;8.10;;;8.50;99.90;;;;;;5010978;28;20030;-59
2023/01/02 08:54:55;;;;;;;12.27;7.88;;;8.60;99.90;;;;;;5014983;28;20029;-60
2023/01/02 08:57:21;;;;;;;10.35;8.13;;;8.60;99.90;;;;;;5016182;28;20066;-60
2023/01/02 08:59:46;;;;;;;10.45;8.30;;;8.70;99.90;;;;;;5017670;28;20480;-58
2023/01/02 09:02:13;;;;;;;9.80;8.80;;;8.80;99.90;;;;;;5015799;28;20033;-59
2023/01/02 09:04:40;;;;;;;12.10;8.82;;;8.80;99.90;;;;;;5014657;28;20026;-58
2023/01/02 09:07:06;;;;;;;10.85;7.72;;;8.80;99.90;;;;;;5012466;28;20037;-58
2023/01/02 09:09:31;;;;;;;9.43;7.47;;;8.80;99.90;;;;;;5007724;28;20029;-60
2023/01/02 09:11:58;;;;;;;8.25;7.38;;;8.80;99.90;;;;;;5005720;28;20041;-59
2023/01/02 09:14:24;;;;;;;8.45;7.57;;;8.90;99.90;;;;;;5008923;28;20442;-60
2023/01/02 09:16:50;;;;;;;10.45;7.57;;;8.90;99.90;;;;;;5007477;28;20023;-58
2023/01/02 09:19:16;;;;;;;9.90;8.07;;;8.90;99.90;;;;;;5011078;28;20104;-59
2023/01/02 09:21:42;;;;;;;9.10;7.57;;;8.90;99.90;;;;;;5009877;28;20014;-60
2023/01/02 09:24:08;;;;;;;10.50;8.35;;;8.90;99.90;;;;;;5007159;28;20065;-59
2023/01/02 09:26:34;;;;;;;8.98;7.72;;;8.90;99.90;;;;;;5008037;28;20035;-60
2023/01/02 09:29:00;;;;;;;10.85;8.30;;;9.00;99.90;;;;;;5007594;28;20598;-60
2023/01/02 09:31:25;;;;;;;10.35;8.10;;;9.00;99.90;;;;;;5012628;28;20112;-60
2023/01/02 09:33:53;;;;;;;10.30;7.50;;;9.00;99.90;;;;;;5011997;28;20064;-60
2023/01/02 09:36:20;;;;;;;9.50;7.57;;;9.00;99.90;;;;;;5012566;28;20035;-59
2023/01/02 09:38:57;;;;;;;10.77;8.35;;;9.10;99.90;;;;;;5015801;28;20041;-60
2023/01/02 09:41:45;;;;;;;9.63;8.23;;;9.10;99.90;;;;;;5012307;28;20556;-58
2023/01/02 09:44:14;;;;;;;8.75;7.32;;;9.10;99.90;;;;;;5008493;28;20121;-59
2023/01/02 09:46:52;;;;;;;10.32;7.95;;;9.20;99.90;;;;;;5011517;28;20076;-59
2023/01/02 09:49:21;;;;;;;8.77;7.35;;;9.30;99.90;;;;;;5012590;28;20044;-60
2023/01/02 09:51:48;;;;;;;8.55;7.15;;;9.30;99.90;;;;;;5008173;28;20041;-58
2023/01/02 09:54:21;;;;;;;9.32;8.02;;;9.40;99.90;;;;;;5004821;28;20038;-59
2023/01/02 09:56:58;;;;;;;9.90;8.38;;;9.40;99.90;;;;;;5005683;28;20045;-59
2023/01/02 09:59:32;;;;;;;10.48;8.48;;;9.50;99.90;;;;;;5012516;28;20408;-60
2023/01/02 10:02:35;;;;;;;8.73;7.93;;;9.50;99.90;;;;;;5015256;28;20513;-60
2023/01/02 10:05:28;;;;;;;9.63;7.75;;;9.60;99.90;;;;;;5008292;28;20034;-59
2023/01/02 10:08:17;;;;;;;9.43;7.63;;;9.60;99.90;;;;;;5008639;28;20029;-59
2023/01/02 10:10:50;;;;;;;10.77;8.27;;;9.60;99.90;;;;;;5003235;28;20030;-59
2023/01/02 10:13:44;;;;;;;9.65;7.75;;;9.60;99.90;;;;;;5005733;28;20040;-59
2023/01/02 10:16:18;;;;;;;8.00;6.80;;;9.60;99.90;;;;;;5015055;28;20015;-59
2023/01/02 10:18:48;;;;;;;11.00;7.95;;;9.70;99.90;;;;;;5007318;28;20501;-59
2023/01/02 10:21:33;;;;;;;9.65;6.95;;;9.80;99.90;;;;;;5006597;28;20375;-59
2023/01/02 10:24:09;;;;;;;10.20;7.95;;;9.90;99.90;;;;;;5006309;28;20034;-59
2023/01/02 10:26:37;;;;;;;8.18;7.38;;;10.20;99.90;;;;;;4999596;28;20037;-59
2023/01/02 10:29:24;;;;;;;7.60;6.75;;;10.30;99.90;;;;;;5007340;28;20030;-59
2023/01/02 10:32:12;;;;;;;8.05;7.25;;;10.40;99.90;;;;;;5010531;28;20631;-59
2023/01/02 10:34:48;;;;;;;8.00;7.00;;;10.60;99.90;;;;;;5010175;28;20054;-59
2023/01/02 10:37:15;;;;;;;7.18;6.40;;;10.80;99.90;;;;;;5014054;28;20382;-60
2023/01/02 10:39:43;;;;;;;8.38;7.45;;;11.00;99.90;;;;;;5018178;28;20534;-60
2023/01/02 10:42:12;;;;;;;7.93;7.00;;;11.20;99.90;;;;;;5018079;28;20386;-60
2023/01/02 10:44:39;;;;;;;7.18;6.47;;;11.40;99.90;;;;;;5017262;28;20065;-60
2023/01/02 10:47:13;;;;;;;8.20;6.55;;;11.70;99.90;;;;;;5015955;28;20088;-59
2023/01/02 10:49:42;;;;;;;7.25;6.45;;;12.10;99.90;;;;;;5012152;28;20524;-59
2023/01/02 10:52:29;;;;;;;7.60;6.90;;;12.40;99.90;;;;;;5009492;28;20060;-61
2023/01/02 10:54:56;;;;;;;8.02;6.05;;;12.80;99.90;;;;;;5011099;28;20478;-59
2023/01/02 10:57:36;;;;;;;7.00;6.30;;;13.00;99.90;;;;;;5016183;28;20227;-59
2023/01/02 11:00:03;;;;;;;7.05;6.35;;;13.30;99.90;;;;;;5017589;28;20677;-58
2023/01/02 11:02:40;;;;;;;8.38;6.95;;;13.30;99.90;;;;;;5017909;28;20042;-61
2023/01/02 11:05:17;;;;;;;6.97;6.32;;;13.00;99.90;;;;;;5014904;28;20045;-60
2023/01/02 11:07:47;;;;;;;7.20;6.20;;;12.80;99.90;;;;;;5016591;28;20517;-59
2023/01/02 11:10:23;;;;;;;6.13;5.53;;;12.70;99.90;;;;;;5011602;28;20080;-59
2023/01/02 11:12:49;;;;;;;7.47;6.63;;;12.70;99.90;;;;;;5011827;28;20400;-60
2023/01/02 11:15:29;;;;;;;7.00;6.30;;;12.50;99.90;;;;;;5017617;28;20524;-60
2023/01/02 11:17:56;;;;;;;7.80;7.00;;;12.50;99.90;;;;;;5017160;28;20029;-60
2023/01/02 11:20:26;;;;;;;7.28;6.47;;;12.50;99.90;;;;;;5020457;28;20497;-59
2023/01/02 11:22:54;;;;;;;6.65;6.05;;;12.30;99.90;;;;;;5014410;28;20083;-63
2023/01/02 11:25:26;;;;;;;7.30;6.60;;;12.20;99.90;;;;;;5007062;28;20042;-59
2023/01/02 11:27:56;;;;;;;6.82;6.20;;;12.20;99.90;;;;;;5014871;28;20041;-59
2023/01/02 11:30:45;;;;;;;8.18;6.43;;;12.20;99.90;;;;;;5014063;28;20036;-59
2023/01/02 11:33:18;;;;;;;7.32;6.63;;;12.20;99.90;;;;;;5013495;28;20041;-58
2023/01/02 11:35:51;;;;;;;9.63;6.95;;;12.10;99.90;;;;;;5012322;28;20120;-60
2023/01/02 11:38:20;;;;;;;9.90;6.82;;;12.10;99.90;;;;;;5013252;28;20031;-61
2023/01/02 11:41:01;;;;;;;7.50;6.68;;;12.20;99.90;;;;;;5012361;28;20022;-60
2023/01/02 11:43:48;;;;;;;7.55;6.75;;;12.60;99.90;;;;;;5018644;28;20056;-60
2023/01/02 11:46:37;;;;;;;7.07;6.30;;;12.80;99.90;;;;;;5010082;28;20131;-61
2023/01/02 11:49:12;;;;;;;7.07;6.38;;;13.10;99.90;;;;;;5011108;28;20028;-60
2023/01/02 11:51:39;;;;;;;9.30;6.22;;;13.40;99.90;;;;;;5006311;28;20050;-60
2023/01/02 11:54:18;;;;;;;6.55;5.93;;;13.70;99.90;;;;;;5019355;28;20460;-60
2023/01/02 11:56:44;;;;;;;8.05;6.07;;;14.00;99.90;;;;;;5014069;28;20034;-61
2023/01/02 11:59:16;;;;;;;6.22;5.63;;;14.20;99.90;;;;;;5009995;28;20492;-61
2023/01/02 12:01:51;;;;;;;6.40;5.68;;;14.20;99.90;;;;;;5005982;28;20183;-62
2023/01/02 12:04:16;;;;;;;6.13;5.53;;;14.30;99.90;;;;;;5003198;28;20524;-60
2023/01/02 12:07:09;;;;;;;6.55;5.68;;;14.40;99.90;;;;;;5001898;28;20140;-61
2023/01/02 12:09:41;;;;;;;6.50;5.40;;;14.50;99.90;;;;;;5003169;28;20065;-60
2023/01/02 12:12:16;;;;;;;7.55;5.88;;;14.70;99.90;;;;;;5007385;28;20505;-61
2023/01/02 12:14:59;;;;;;;8.73;5.22;;;14.80;98.20;;;;;;5011396;28;20156;-63
2023/01/02 12:18:02;;;;;;;6.28;4.03;;;15.00;98.40;;;;;;5010152;28;20034;-60
2023/01/02 12:20:58;;;;;;;5.60;4.40;;;15.20;97.40;;;;;;5018570;28;20041;-62
2023/01/02 12:23:45;;;;;;;5.20;4.05;;;15.30;97.60;;;;;;5012419;28;20037;-60
2023/01/02 12:26:19;;;;;;;4.88;4.30;;;15.40;96.10;;;;;;5017866;28;20072;-62
2023/01/02 12:28:53;;;;;;;5.50;4.75;;;15.20;95.90;;;;;;5005213;28;20109;-63
2023/01/02 12:31:28;;;;;;;5.15;4.65;;;15.00;96.40;;;;;;5016270;28;20033;-62
2023/01/02 12:34:31;;;;;;;7.10;5.30;;;14.80;97.00;;;;;;5014872;28;20037;-60
2023/01/02 12:37:20;;;;;;;5.63;4.65;;;14.60;99.20;;;;;;5011677;28;20034;-60
2023/01/02 12:39:49;;;;;;;6.22;5.63;;;14.40;99.60;;;;;;5014786;28;20092;-64
2023/01/02 12:42:36;;;;;;;5.50;4.88;;;14.30;98.70;;;;;;5009529;28;20034;-61
2023/01/02 12:45:01;;;;;;;6.38;5.43;;;14.10;99.90;;;;;;5009491;28;20063;-61
2023/01/02 12:47:36;;;;;;;7.00;4.53;;;13.90;99.90;;;;;;5010829;28;20522;-61
2023/01/02 12:50:23;;;;;;;5.80;5.03;;;13.80;99.90;;;;;;5011007;28;20485;-63
2023/01/02 12:53:26;;;;;;;6.57;4.43;;;13.60;99.90;;;;;;5009502;28;20589;-61
2023/01/02 12:55:59;;;;;;;5.30;4.72;;;13.50;99.90;;;;;;5011749;28;20034;-60
2023/01/02 12:58:49;;;;;;;5.07;4.57;;;13.40;99.90;;;;;;5012293;28;20104;-59
2023/01/02 13:01:50;;;;;;;9.75;4.80;;;13.40;99.90;;;;;;5008137;28;20075;-59
2023/01/02 13:04:16;;;;;;;5.95;4.20;;;13.40;99.90;;;;;;5006086;28;20107;-60
2023/01/02 13:06:52;;;;;;;9.93;4.25;;;13.40;99.40;;;;;;5009161;28;20022;-58
2023/01/02 13:09:38;;;;;;;5.15;4.03;;;13.60;99.60;;;;;;5014789;28;20117;-58
2023/01/02 13:12:05;;;;;;;6.43;3.75;;;13.70;99.90;;;;;;5013692;28;20038;-60
2023/01/02 13:14:39;;;;;;;5.30;3.63;;;13.70;98.70;;;;;;5009341;28;20566;-58